Latest Weather Observations for Esperance

IDW60801

Issued at 1:35 pm WST Friday 1 August 2014 (issued every 30 minutes, with the page automatically refreshed every 10 minutes)

About weather observations | Map of weather stations | Latest weather observations for WA | Other Formats
Station Details ID: 009789 Name: ESPERANCE Lat: -33.83 Lon: 121.89 Height: 25.0 m
Data from the previous 72 hours. | See also: Recent months at Esperance
Date/Time
WST
Temp
°C
App
Temp
°C
Dew
Point
Rel
Hum
%
Delta-T
°C
Wind Press
QNH
hPa
Press
MSL
hPa
Rain
since 9 am
mm
Dir
 
Spd
km/h
Gust
km/h
Spd
kts
Gust
kts
01/01:30pm 13.6 12.2 5.7 59 3.7 NW 2 6 1 3 1028.0 - 0.0
01/01:00pm 13.0 10.4 6.0 62 3.3 W 9 15 5 8 1028.5 1028.5 0.0
01/12:30pm 13.2 10.2 6.0 61 3.4 WNW 11 17 6 9 1028.8 - 0.0
01/12:00pm 13.2 10.2 6.2 62 3.3 WNW 11 15 6 8 1029.3 1029.3 0.0
01/11:30am 12.9 9.5 5.8 62 3.3 NW 13 17 7 9 1029.7 - 0.0
01/11:00am 12.8 10.2 6.2 64 3.1 WNW 9 11 5 6 1029.7 1029.7 0.0
01/10:30am 14.0 11.1 6.5 60 3.6 WNW 11 17 6 9 1030.0 - 0.0
01/10:00am 13.4 10.2 6.9 65 3.1 NW 13 17 7 9 1030.1 1030.1 0.0
01/09:30am 11.8 8.7 7.4 74 2.1 NW 13 17 7 9 1030.1 - 0.0
01/09:00am 10.3 7.4 8.0 86 1.1 N 13 15 7 8 1030.2 1030.2 0.4
01/08:58am 10.2 7.6 7.7 84 1.2 N 11 15 6 8 1030.2 - 0.4
01/08:30am 9.7 7.6 8.2 90 0.7 N 9 11 5 6 1030.0 - 0.2
01/08:00am 9.6 8.4 7.9 89 0.8 WSW 4 7 2 4 1029.6 1029.6 0.2
01/07:47am 9.8 8.0 7.2 84 1.2 WNW 6 7 3 4 1029.5 - 0.2
01/07:30am 9.7 7.6 6.7 81 1.4 ENE 7 11 4 6 1029.2 - 0.2
01/07:00am 9.6 7.5 6.8 83 1.3 N 7 9 4 5 1028.7 1028.7 0.2
01/06:30am 9.9 7.8 6.7 80 1.5 NNW 7 9 4 5 1028.5 - 0.2
01/06:00am 10.1 7.9 6.2 77 1.8 WNW 7 9 4 5 1028.1 1028.1 0.2
01/05:30am 10.2 8.2 6.3 77 1.8 SSW 6 9 3 5 1027.8 - 0.2
01/05:00am 10.4 7.8 6.3 76 1.9 W 9 13 5 7 1027.5 1027.5 0.2
01/04:30am 10.3 8.4 6.7 78 1.7 NW 6 9 3 5 1027.3 - 0.2
01/04:00am 10.3 8.2 6.7 78 1.7 W 7 9 4 5 1027.2 1027.2 0.2
01/03:30am 10.5 8.6 6.6 77 1.8 SW 6 7 3 4 1027.3 - 0.2
01/03:00am 10.8 7.9 6.3 74 2.1 W 11 15 6 8 1027.3 1027.3 0.2
01/02:30am 11.0 8.3 5.8 70 2.4 SSW 9 19 5 10 1027.5 - 0.2
01/02:00am 11.4 7.3 4.5 62 3.1 S 15 22 8 12 1027.6 1027.6 0.2
01/01:30am 11.1 8.4 5.4 68 2.6 SSE 9 11 5 6 1027.7 - 0.2
01/01:00am 11.2 6.6 5.5 68 2.6 SSE 19 24 10 13 1027.8 1027.8 0.2
01/12:30am 11.3 8.9 5.4 67 2.7 S 7 13 4 7 1027.8 - 0.2
01/12:00am 11.8 7.2 3.9 58 3.5 S 17 24 9 13 1027.8 1027.8 0.2
 
Date/Time
WST
Temp
°C
App
Temp
°C
Dew
Point
Rel
Hum
%
Delta-T
°C
Wind Press
QNH
hPa
Press
MSL
hPa
Rain
since 9 am
mm
Dir
 
Spd
km/h
Gust
km/h
Spd
kts
Gust
kts
31/11:30pm 11.8 7.7 6.0 67 2.7 S 17 32 9 17 1027.8 - 0.2
31/11:00pm 12.1 7.5 3.8 57 3.7 S 17 26 9 14 1027.9 1027.9 0.2
31/10:30pm 11.6 8.1 5.5 66 2.8 S 13 22 7 12 1027.8 - 0.2
31/10:00pm 11.8 8.1 4.5 61 3.3 S 13 20 7 11 1027.7 1027.7 0.2
31/09:30pm 11.8 6.8 4.7 62 3.2 S 20 35 11 19 1027.7 - 0.2
31/09:00pm 11.7 8.1 5.1 64 3.0 SSW 13 19 7 10 1027.7 1027.7 0.2
31/08:30pm 11.7 7.8 3.5 57 3.6 SW 13 22 7 12 1027.6 - 0.2
31/08:00pm 11.5 7.2 3.5 58 3.5 SW 15 24 8 13 1027.5 1027.5 0.2
31/07:30pm 11.3 7.2 4.1 61 3.2 WSW 15 20 8 11 1027.4 - 0.2
31/07:00pm 10.8 6.4 2.9 58 3.4 SW 15 24 8 13 1027.6 1027.6 0.2
31/06:30pm 11.1 7.0 4.4 63 3.0 SW 15 26 8 14 1027.5 - 0.2
31/06:00pm 11.0 6.0 4.5 64 2.9 SW 20 33 11 18 1027.3 1027.3 0.2
31/05:30pm 11.4 6.7 3.1 56 3.6 SW 17 26 9 14 1027.0 - 0.2
31/05:00pm 11.8 7.5 3.4 56 3.7 SW 15 22 8 12 1026.7 1026.7 0.2
31/04:30pm 12.1 7.4 2.9 53 4.0 SW 17 28 9 15 1026.3 - 0.2
31/04:00pm 12.4 6.6 2.5 51 4.3 WSW 22 35 12 19 1026.0 1026.0 0.2
31/03:30pm 12.6 7.2 2.2 49 4.5 WSW 20 30 11 16 1025.7 - 0.2
31/03:00pm 13.0 7.6 1.2 44 5.0 SW 19 35 10 19 1025.4 1025.4 0.2
31/02:30pm 13.2 7.7 0.5 42 5.3 SW 19 30 10 16 1025.2 - 0.2
31/02:00pm 12.9 8.0 2.3 48 4.6 SW 17 33 9 18 1024.9 1024.9 0.2
31/01:30pm 13.2 8.2 1.2 44 5.1 SW 17 26 9 14 1024.8 - 0.2
31/01:00pm 13.2 7.0 -0.2 39 5.5 SSW 22 33 12 18 1024.9 1024.9 0.2
31/12:30pm 12.9 7.5 1.0 44 5.0 SSW 19 30 10 16 1024.8 - 0.2
31/12:00pm 12.4 6.3 2.8 52 4.2 SW 24 41 13 22 1024.8 1024.8 0.2
31/11:30am 13.2 6.9 1.8 46 4.9 SSW 24 35 13 19 1024.7 - 0.2
31/11:00am 12.3 7.8 4.0 57 3.7 SSW 17 22 9 12 1024.7 1024.7 0.2
31/10:30am 12.3 6.2 2.9 52 4.1 SW 24 39 13 21 1024.5 - 0.0
31/10:00am 12.3 6.4 2.0 49 4.4 SW 22 41 12 22 1024.1 1024.1 0.0
31/09:30am 12.4 6.0 0.9 45 4.8 SW 24 35 13 19 1023.7 - 0.0
31/09:00am 12.0 5.7 1.6 49 4.4 SW 24 39 13 21 1023.4 1023.4 1.8
31/08:30am 11.8 5.3 2.5 53 4.0 SSW 26 43 14 23 1023.0 - 1.8
31/08:14am 11.7 4.8 2.4 53 4.0 SSW 28 46 15 25 1022.8 - 1.8
31/08:00am 11.9 5.2 1.2 48 4.5 SSW 26 39 14 21 1022.6 1022.6 1.8
31/07:30am 11.9 4.3 2.7 53 4.0 SSW 32 46 17 25 1021.8 - 1.8
31/07:04am 11.8 5.2 4.0 59 3.5 SSW 28 46 15 25 1021.5 - 1.8
31/07:00am 12.0 4.4 3.1 54 3.9 SSW 32 46 17 25 1021.5 1021.5 1.8
31/06:30am 10.7 5.4 6.9 77 1.8 SW 24 43 13 23 1021.0 - 1.8
31/06:00am 10.8 4.3 8.3 84 1.2 SSW 32 54 17 29 1020.6 1020.6 1.6
31/05:54am 12.5 6.0 4.6 58 3.6 SW 28 48 15 26 1020.4 - 1.6
31/05:30am 11.9 6.1 6.1 67 2.7 SW 26 41 14 22 1019.9 - 1.6
31/05:00am 11.1 3.2 8.0 81 1.5 SW 39 70 21 38 1019.5 1019.5 1.6
31/04:57am 11.8 4.0 6.7 71 2.4 SW 37 70 20 38 1019.4 - 1.6
31/04:30am 12.7 5.4 4.3 56 3.8 SW 32 50 17 27 1019.0 - 1.6
31/04:01am 13.1 5.5 2.6 49 4.6 WSW 32 50 17 27 1018.6 - 1.6
31/04:00am 13.1 5.5 2.9 50 4.5 WSW 32 46 17 25 1018.7 1018.7 1.6
31/03:30am 13.4 4.8 2.4 47 4.8 SW 37 70 20 38 1018.6 - 1.6
31/03:24am 13.5 4.7 1.4 43 5.2 SW 37 70 20 38 1018.4 - 1.6
31/03:00am 13.4 7.1 5.8 60 3.6 SW 28 46 15 25 1018.0 1018.0 1.6
31/02:30am 13.3 6.6 7.3 67 2.9 WSW 32 50 17 27 1017.6 - 1.6
31/02:08am 13.9 7.8 6.6 61 3.5 SW 28 52 15 28 1017.3 - 1.6
31/02:00am 13.6 8.0 7.0 64 3.2 SW 26 41 14 22 1017.3 1017.3 1.6
31/01:30am 13.5 7.3 7.8 68 2.8 SW 30 54 16 29 1017.0 - 1.6
31/01:18am 13.1 7.5 8.9 75 2.1 SW 28 46 15 25 1017.0 - 1.6
31/01:10am 12.7 7.7 9.6 81 1.6 SW 26 43 14 23 1016.9 - 1.4
31/01:00am 12.6 7.4 10.3 86 1.2 WSW 28 52 15 28 1016.9 1016.9 1.4
31/12:48am 12.3 7.3 11.0 92 0.7 SW 28 46 15 25 1016.8 - 1.4
31/12:33am 12.6 7.8 11.8 95 0.4 SW 28 50 15 27 1016.5 - 1.2
31/12:30am 13.0 9.2 12.4 96 0.3 WSW 24 44 13 24 1016.6 - 1.0
31/12:29am 13.1 9.7 12.4 95 0.4 WSW 22 44 12 24 1016.6 - 1.0
31/12:15am 13.1 7.8 9.8 80 1.7 W 28 43 15 23 1016.3 - 0.0
31/12:00am 13.9 9.0 8.5 70 2.7 WNW 24 39 13 21 1016.0 1016.0 0.0
 
Date/Time
WST
Temp
°C
App
Temp
°C
Dew
Point
Rel
Hum
%
Delta-T
°C
Wind Press
QNH
hPa
Press
MSL
hPa
Rain
since 9 am
mm
Dir
 
Spd
km/h
Gust
km/h
Spd
kts
Gust
kts
30/11:30pm 13.9 8.7 8.7 71 2.6 WNW 26 37 14 20 1015.9 - 0.0
30/11:00pm 14.3 10.0 9.2 71 2.6 WNW 22 35 12 19 1015.7 1015.7 0.0
30/10:30pm 14.1 9.5 8.1 67 3.0 W 22 35 12 19 1015.9 - 0.0
30/10:00pm 14.2 9.6 8.0 66 3.1 WNW 22 35 12 19 1015.6 1015.6 0.0
30/09:30pm 14.1 9.2 8.3 68 2.9 WNW 24 37 13 20 1015.2 - 0.0
30/09:00pm 14.6 8.9 8.4 66 3.1 NW 28 37 15 20 1014.9 1015.0 0.0
30/08:30pm 14.8 9.1 8.5 66 3.2 NW 28 39 15 21 1015.1 - 0.0
30/08:00pm 14.7 9.4 8.6 67 3.1 NW 26 35 14 19 1015.3 1015.4 0.0
30/07:30pm 15.0 10.1 8.5 65 3.3 NW 24 30 13 16 1015.6 - 0.0
30/07:00pm 15.3 10.4 8.4 63 3.5 NW 24 32 13 17 1015.7 1015.7 0.0
30/06:30pm 15.4 10.5 8.5 63 3.5 NW 24 32 13 17 1015.7 - 0.0
30/06:00pm 16.1 11.1 8.2 59 4.0 NW 24 33 13 18 1015.3 1015.4 0.0
30/05:30pm 16.4 12.3 8.8 60 3.9 WNW 20 24 11 13 1015.6 - 0.0
30/05:00pm 17.1 12.9 8.3 56 4.5 WNW 20 30 11 16 1015.2 1015.3 0.0
30/04:30pm 17.7 13.6 8.6 55 4.7 WNW 20 28 11 15 1015.1 - 0.0
30/04:00pm 18.4 12.3 8.1 51 5.3 WNW 30 43 16 23 1015.1 1015.2 0.0
30/03:39pm 18.5 11.9 7.7 49 5.5 WNW 32 44 17 24 1014.9 - 0.0
30/03:30pm 18.2 15.3 9.7 57 4.5 W 15 24 8 13 1015.0 - 0.0
30/03:00pm 18.1 14.5 9.8 58 4.4 WSW 19 28 10 15 1015.1 1015.2 0.0
30/02:30pm 19.9 14.9 8.1 46 6.1 WNW 24 37 13 20 1015.0 - 0.0
30/02:00pm 19.6 13.9 8.2 47 5.9 WNW 28 39 15 21 1015.2 1015.3 0.0
30/01:30pm 18.5 12.3 7.9 50 5.4 WNW 30 46 16 25 1015.5 - 0.0
30/01:26pm 18.0 12.2 7.8 51 5.2 WNW 28 46 15 25 1015.6 - 0.0
30/01:00pm 18.5 12.8 8.4 51 5.2 WNW 28 41 15 22 1016.0 1016.0 0.0
30/12:30pm 17.4 11.7 8.2 54 4.7 WNW 28 43 15 23 1016.4 - 0.0
30/12:00pm 17.7 11.9 8.1 53 4.9 WNW 28 39 15 21 1016.9 1016.9 0.0
30/11:30am 17.3 10.5 7.6 53 4.9 WNW 33 46 18 25 1017.3 - 0.0
30/11:00am 17.0 10.2 7.7 54 4.7 WNW 33 44 18 24 1017.4 1017.4 0.0
30/10:30am 16.6 9.3 7.4 54 4.6 WNW 35 56 19 30 1017.8 - 0.0
30/10:18am 16.5 10.2 7.5 55 4.5 W 30 54 16 29 1017.9 - 0.0
30/10:00am 16.2 9.5 7.3 55 4.4 W 32 44 17 24 1018.2 1018.2 0.0
30/09:30am 16.2 10.9 8.3 59 4.0 WNW 26 39 14 21 1018.5 - 0.0
30/09:20am 16.0 10.2 8.1 59 4.0 WNW 28 46 15 25 1018.4 - 0.0
30/09:00am 15.5 9.9 8.6 63 3.5 WNW 28 43 15 23 1018.4 1018.4 0.0
30/08:30am 14.2 8.7 9.1 71 2.6 NW 28 39 15 21 1018.5 - 0.0
30/08:00am 13.3 8.6 9.1 76 2.1 NW 24 32 13 17 1018.4 1018.4 0.0
30/07:30am 12.3 8.6 9.3 82 1.5 NW 19 24 10 13 1018.4 - 0.0
30/07:00am 12.2 7.9 9.4 83 1.4 NW 22 32 12 17 1018.3 1018.3 0.0
30/06:30am 12.4 8.1 9.2 81 1.6 NW 22 30 12 16 1018.3 - 0.0
30/06:00am 13.2 8.9 9.3 77 2.0 NW 22 30 12 16 1018.5 1018.5 0.0
30/05:30am 12.8 8.8 9.2 79 1.8 NW 20 28 11 15 1018.4 - 0.0
30/05:00am 12.7 8.0 9.1 79 1.8 NW 24 37 13 20 1018.4 1018.4 0.0
30/04:30am 12.8 7.7 9.2 79 1.8 NW 26 35 14 19 1018.4 - 0.0
30/04:00am 12.9 8.5 9.1 78 1.9 WNW 22 30 12 16 1018.6 1018.6 0.0
30/03:30am 13.1 8.4 9.4 78 1.9 WNW 24 33 13 18 1018.8 - 0.0
30/03:00am 12.9 8.2 9.1 78 1.9 NW 24 39 13 21 1018.9 1018.9 0.0
30/02:30am 13.0 7.4 8.8 75 2.1 NW 28 41 15 22 1019.0 - 0.0
30/02:00am 12.5 7.3 8.7 77 1.9 NW 26 35 14 19 1019.2 1019.2 0.0
30/01:30am 12.1 7.6 8.5 78 1.8 NW 22 28 12 15 1019.3 - 0.0
30/01:00am 12.2 7.2 8.1 76 2.0 NW 24 30 13 16 1019.4 1019.4 0.0
30/12:30am 13.2 8.7 8.4 72 2.4 NW 22 32 12 17 1019.5 - 0.0
30/12:00am 12.9 8.7 8.2 73 2.3 NW 20 28 11 15 1019.7 1019.7 0.0
 
Date/Time
WST
Temp
°C
App
Temp
°C
Dew
Point
Rel
Hum
%
Delta-T
°C
Wind Press
QNH
hPa
Press
MSL
hPa
Rain
since 9 am
mm
Dir
 
Spd
km/h
Gust
km/h
Spd
kts
Gust
kts
29/11:30pm 12.7 8.6 8.0 73 2.3 NW 19 24 10 13 1020.0 - 0.0
29/11:00pm 12.9 8.2 7.6 70 2.6 NW 22 28 12 15 1020.3 1020.3 0.0
29/10:30pm 13.2 9.4 7.5 68 2.8 NW 17 24 9 13 1020.5 - 0.0
29/10:00pm 14.0 9.8 7.5 65 3.2 WNW 19 24 10 13 1020.5 1020.5 0.0
29/09:30pm 15.5 10.3 7.2 57 4.1 NW 24 33 13 18 1020.5 - 0.0
29/09:00pm 15.8 11.7 8.5 62 3.7 NW 20 30 11 16 1020.7 1020.7 0.0
29/08:30pm 15.6 12.3 9.4 66 3.2 NW 17 20 9 11 1020.7 - 0.0
29/08:00pm 15.6 12.7 9.8 68 3.0 NW 15 20 8 11 1020.7 1020.7 0.0
29/07:30pm 15.6 13.9 11.3 75 2.3 NNW 11 17 6 9 1020.4 - 0.0
29/07:00pm 15.6 14.3 11.3 75 2.3 NNW 9 15 5 8 1020.4 1020.4 0.0
29/06:30pm 15.6 14.4 11.7 77 2.1 NNW 9 48 5 26 1020.5 - 0.0
29/06:00pm 15.8 15.1 11.9 77 2.1 NW 7 9 4 5 1020.3 1020.3 0.0
29/05:30pm 16.2 15.5 12.0 76 2.3 W 7 9 4 5 1020.0 - 0.0
29/05:00pm 16.6 15.4 11.6 72 2.7 WSW 9 15 5 8 1019.8 1019.8 0.0
29/04:30pm 16.9 15.6 11.3 69 3.0 WSW 9 17 5 9 1019.7 - 0.0
29/04:00pm 17.2 15.1 11.1 67 3.3 WSW 13 19 7 10 1019.7 1019.7 0.0
29/03:30pm 17.5 15.4 11.0 65 3.5 SW 13 19 7 10 1019.6 - 0.0
29/03:00pm 18.5 16.1 10.0 57 4.5 WSW 13 19 7 10 1019.5 1019.5 0.0
29/02:30pm 18.2 14.9 9.4 56 4.6 W 17 24 9 13 1019.5 - 0.0
29/02:00pm 18.5 14.5 9.1 54 4.9 W 20 32 11 17 1019.6 1019.6 0.0

Other Formats:

Comma delimited format used in spreadsheet applications
http://www.bom.gov.au/fwo/IDW60801/IDW60801.94638.axf

JavaScript Object Notation format (JSON) in row-major order
http://www.bom.gov.au/fwo/IDW60801/IDW60801.94638.json